Time;durP1;ratioP1;P1;durP2;ratioP2;P2;SDS_P1;SDS_P2;PMS_P1;PMS_P2;Temp;Humidity;BMP_temperature;BMP_pressure;BME280_temperature;BME280_humidity;BME280_pressure;Samples;Min_cycle;Max_cycle;Signal;HPM_P1;HPM_P2
2022/09/05 00:02:01;;;;;;;9.40;5.95;;;;;;;;;;4990926;28;100155;-72
2022/09/05 00:04:39;;;;;;;13.55;6.22;;;;;;;;;;4992273;28;98476;-72
2022/09/05 00:07:20;;;;;;;12.98;6.72;;;;;;;;;;4992153;28;99898;-72
2022/09/05 00:10:09;;;;;;;10.15;6.35;;;;;;;;;;4991808;28;100802;-72
2022/09/05 00:12:37;;;;;;;12.00;6.70;;;;;;;;;;4991593;28;98506;-72
2022/09/05 00:15:22;;;;;;;17.20;6.68;;;;;;;;;;4991364;28;99987;-72
2022/09/05 00:17:58;;;;;;;21.08;7.30;;;;;;;;;;4991339;28;99554;-72
2022/09/05 00:20:51;;;;;;;9.38;6.72;;;;;;;;;;4994124;28;98569;-72
2022/09/05 00:23:38;;;;;;;14.20;6.90;;;;;;;;;;4988831;28;100757;-72
2022/09/05 00:26:32;;;;;;;19.48;7.07;;;;;;;;;;4991930;28;99213;-72
2022/09/05 00:29:11;;;;;;;14.30;7.22;;;;;;;;;;4991110;28;100811;-72
2022/09/05 00:32:00;;;;;;;13.85;8.65;;;;;;;;;;4991840;28;100176;-72
2022/09/05 00:34:36;;;;;;;20.83;7.40;;;;;;;;;;4991903;28;98554;-72
2022/09/05 00:37:24;;;;;;;12.57;7.70;;;;;;;;;;4991084;28;99918;-72
2022/09/05 00:39:50;;;;;;;12.38;7.03;;;;;;;;;;4990983;28;100335;-71
2022/09/05 00:42:36;;;;;;;12.35;7.95;;;;;;;;;;4991416;28;98441;-71
2022/09/05 00:45:04;;;;;;;13.07;7.50;;;;;;;;;;4993853;28;99235;-71
2022/09/05 00:47:54;;;;;;;11.95;7.45;;;;;;;;;;4990354;28;98956;-71
2022/09/05 00:50:28;;;;;;;8.48;7.20;;;;;;;;;;4990456;28;99172;-71
2022/09/05 00:52:58;;;;;;;11.55;7.70;;;;;;;;;;4975562;28;100148;-71
2022/09/05 00:55:51;;;;;;;10.80;8.02;;;;;;;;;;4971914;28;98620;-71
2022/09/05 00:58:32;;;;;;;11.55;7.30;;;;;;;;;;4970836;28;99956;-72
2022/09/05 01:01:06;;;;;;;11.60;8.15;;;;;;;;;;4970471;28;99451;-71
2022/09/05 01:03:52;;;;;;;11.30;8.35;;;;;;;;;;4971343;28;98634;-71
2022/09/05 01:06:18;;;;;;;17.37;7.73;;;;;;;;;;4992498;28;99969;-71
2022/09/05 01:08:44;;;;;;;15.05;7.30;;;;;;;;;;4991029;28;98546;-71
2022/09/05 01:11:31;;;;;;;11.18;7.28;;;;;;;;;;4990996;28;99288;-71
2022/09/05 01:14:16;;;;;;;10.13;7.25;;;;;;;;;;4990173;28;100369;-71
2022/09/05 01:17:01;;;;;;;14.57;7.50;;;;;;;;;;4990854;28;98435;-71
2022/09/05 01:19:28;;;;;;;9.07;7.55;;;;;;;;;;4989806;28;100162;-71
2022/09/05 01:22:13;;;;;;;14.60;7.70;;;;;;;;;;4982873;28;99570;-71
2022/09/05 01:24:52;;;;;;;16.95;8.45;;;;;;;;;;4990952;28;98500;-71
2022/09/05 01:27:37;;;;;;;11.48;9.05;;;;;;;;;;4990363;28;100325;-71
2022/09/05 01:30:23;;;;;;;12.27;8.50;;;;;;;;;;4993755;28;99334;-71
2022/09/05 01:33:17;;;;;;;11.05;7.82;;;;;;;;;;4989688;28;100066;-71
2022/09/05 01:36:15;;;;;;;14.23;8.10;;;;;;;;;;4990215;28;99450;-71
2022/09/05 01:38:46;;;;;;;12.15;8.25;;;;;;;;;;4979264;28;97931;-71
2022/09/05 01:41:38;;;;;;;11.45;7.82;;;;;;;;;;4990689;28;98398;-71
2022/09/05 01:44:10;;;;;;;8.75;7.85;;;;;;;;;;4990435;28;99450;-71
2022/09/05 01:46:41;;;;;;;13.80;9.05;;;;;;;;;;4989462;28;99252;-71
2022/09/05 01:49:15;;;;;;;12.07;7.90;;;;;;;;;;4990798;28;100677;-71
2022/09/05 01:51:55;;;;;;;8.98;8.10;;;;;;;;;;4988022;28;99404;-71
2022/09/05 01:54:35;;;;;;;15.25;8.20;;;;;;;;;;4992834;28;98835;-71
2022/09/05 01:57:20;;;;;;;11.50;8.52;;;;;;;;;;4989973;28;99307;-71
2022/09/05 01:59:54;;;;;;;12.60;8.88;;;;;;;;;;4990402;28;98583;-71
2022/09/05 02:02:23;;;;;;;8.95;8.15;;;;;;;;;;4989498;28;99174;-71
2022/09/05 02:05:09;;;;;;;10.18;9.00;;;;;;;;;;4990103;28;99567;-71
2022/09/05 02:07:47;;;;;;;14.38;8.30;;;;;;;;;;4989926;28;98620;-71
2022/09/05 02:10:20;;;;;;;12.98;8.55;;;;;;;;;;4990384;28;100165;-71
2022/09/05 02:12:48;;;;;;;21.98;9.25;;;;;;;;;;4989847;28;100367;-71
2022/09/05 02:15:36;;;;;;;10.15;8.45;;;;;;;;;;4989323;28;99097;-71
2022/09/05 02:18:05;;;;;;;11.25;9.70;;;;;;;;;;4993658;28;99064;-72
2022/09/05 02:20:41;;;;;;;9.82;8.85;;;;;;;;;;4978666;28;98480;-71
2022/09/05 02:23:16;;;;;;;12.98;9.20;;;;;;;;;;4969815;28;99838;-71
2022/09/05 02:26:22;;;;;;;18.63;9.15;;;;;;;;;;4969875;28;100106;-71
2022/09/05 02:28:59;;;;;;;12.70;10.30;;;;;;;;;;4969252;28;98891;-71
2022/09/05 02:31:34;;;;;;;16.00;9.02;;;;;;;;;;4989211;28;99314;-71
2022/09/05 02:34:12;;;;;;;17.75;10.05;;;;;;;;;;4989761;28;99040;-71
2022/09/05 02:36:43;;;;;;;26.08;9.68;;;;;;;;;;4988413;28;98487;-71
2022/09/05 02:39:15;;;;;;;18.98;9.60;;;;;;;;;;4990186;28;99883;-71
2022/09/05 02:42:08;;;;;;;10.50;9.43;;;;;;;;;;4996488;28;100150;-71
2022/09/05 02:45:02;;;;;;;17.00;9.02;;;;;;;;;;4993131;28;100082;-71
2022/09/05 02:47:58;;;;;;;10.63;9.65;;;;;;;;;;4985879;28;100070;-71
2022/09/05 02:50:32;;;;;;;18.27;9.70;;;;;;;;;;4972638;28;98643;-71
2022/09/05 02:53:19;;;;;;;12.57;10.13;;;;;;;;;;4988870;28;99928;-71
2022/09/05 02:56:11;;;;;;;14.02;9.80;;;;;;;;;;4992051;28;100164;-71
2022/09/05 02:59:09;;;;;;;10.68;9.52;;;;;;;;;;4992975;28;97744;-71
2022/09/05 03:01:55;;;;;;;11.05;9.95;;;;;;;;;;4992993;28;98602;-71
2022/09/05 03:04:56;;;;;;;15.50;9.55;;;;;;;;;;4992310;28;100388;-71
2022/09/05 03:07:39;;;;;;;9.60;8.68;;;;;;;;;;4972977;28;99423;-71
2022/09/05 03:10:13;;;;;;;18.33;9.30;;;;;;;;;;4990662;28;100226;-71
2022/09/05 03:12:58;;;;;;;15.07;8.82;;;;;;;;;;4991885;28;98954;-71
2022/09/05 03:15:43;;;;;;;17.45;9.63;;;;;;;;;;4992989;28;100146;-71
2022/09/05 03:18:39;;;;;;;11.95;9.55;;;;;;;;;;4991760;28;99332;-71
2022/09/05 03:21:28;;;;;;;13.57;8.60;;;;;;;;;;4955604;28;98746;-71
2022/09/05 03:23:54;;;;;;;12.68;9.60;;;;;;;;;;4972551;28;99295;-71
2022/09/05 03:26:26;;;;;;;15.38;10.25;;;;;;;;;;4972541;28;98696;-71
2022/09/05 03:28:55;;;;;;;10.32;9.48;;;;;;;;;;4975491;28;98487;-71
2022/09/05 03:31:40;;;;;;;12.73;9.30;;;;;;;;;;4991188;28;99512;-71
2022/09/05 03:34:33;;;;;;;12.10;10.15;;;;;;;;;;4992154;28;99605;-71
2022/09/05 03:37:05;;;;;;;10.45;9.35;;;;;;;;;;4982566;28;100066;-71
2022/09/05 03:39:50;;;;;;;11.80;10.57;;;;;;;;;;4991895;28;100330;-71
2022/09/05 03:42:17;;;;;;;15.27;9.75;;;;;;;;;;4991906;28;98528;-71
2022/09/05 03:44:47;;;;;;;12.93;10.02;;;;;;;;;;4992702;28;98860;-71
2022/09/05 03:47:32;;;;;;;12.98;9.90;;;;;;;;;;4990621;28;99589;-71
2022/09/05 03:50:12;;;;;;;10.35;9.38;;;;;;;;;;4991878;28;98493;-71
2022/09/05 03:53:17;;;;;;;12.70;9.73;;;;;;;;;;4995174;28;99144;-71
2022/09/05 03:56:22;;;;;;;15.85;9.82;;;;;;;;;;4992672;28;98535;-71
2022/09/05 03:59:30;;;;;;;11.70;9.73;;;;;;;;;;4991446;28;99043;-71
2022/09/05 04:02:03;;;;;;;10.75;9.60;;;;;;;;;;4990483;28;100997;-71
2022/09/05 04:04:54;;;;;;;11.70;10.50;;;;;;;;;;4990366;28;98732;-71
2022/09/05 04:07:42;;;;;;;12.07;10.20;;;;;;;;;;4990492;28;99948;-71
2022/09/05 04:10:39;;;;;;;16.08;11.00;;;;;;;;;;4990961;28;100141;-71
2022/09/05 04:13:26;;;;;;;14.07;11.10;;;;;;;;;;4991512;28;98502;-71
2022/09/05 04:16:11;;;;;;;12.68;11.15;;;;;;;;;;4990202;28;100142;-71
2022/09/05 04:18:42;;;;;;;14.13;11.40;;;;;;;;;;4993696;28;99265;-72
2022/09/05 04:21:14;;;;;;;12.80;11.57;;;;;;;;;;4990984;28;99982;-71
2022/09/05 04:23:59;;;;;;;13.98;11.07;;;;;;;;;;4990587;28;100223;-71
2022/09/05 04:26:47;;;;;;;19.48;10.93;;;;;;;;;;4990785;28;98368;-71
2022/09/05 04:29:16;;;;;;;13.75;12.32;;;;;;;;;;4992260;28;100033;-71
2022/09/05 04:31:46;;;;;;;13.88;12.60;;;;;;;;;;4990006;28;101857;-71
2022/09/05 04:34:22;;;;;;;13.75;12.20;;;;;;;;;;4991087;28;98514;-71
2022/09/05 04:37:03;;;;;;;13.95;12.50;;;;;;;;;;4990037;28;99993;-71
2022/09/05 04:39:30;;;;;;;19.30;12.57;;;;;;;;;;4990822;28;100182;-71
2022/09/05 04:42:00;;;;;;;15.18;12.70;;;;;;;;;;4993071;28;98470;-71
2022/09/05 04:44:29;;;;;;;16.63;12.63;;;;;;;;;;4990441;28;100203;-71
2022/09/05 04:47:14;;;;;;;19.27;13.93;;;;;;;;;;4989809;28;97967;-72
2022/09/05 04:49:48;;;;;;;15.07;12.27;;;;;;;;;;4990104;28;99080;-71
2022/09/05 04:52:28;;;;;;;14.82;13.52;;;;;;;;;;4990444;28;100412;-71
2022/09/05 04:55:11;;;;;;;14.15;12.68;;;;;;;;;;4989884;28;99209;-71
2022/09/05 04:57:40;;;;;;;15.60;13.95;;;;;;;;;;4989651;28;100086;-71
2022/09/05 05:00:11;;;;;;;18.35;13.27;;;;;;;;;;4978377;28;100234;-71
2022/09/05 05:02:58;;;;;;;13.77;12.35;;;;;;;;;;4975759;28;98517;-71
2022/09/05 05:05:47;;;;;;;18.77;12.57;;;;;;;;;;4993328;28;100161;-71
2022/09/05 05:08:38;;;;;;;24.60;13.70;;;;;;;;;;4990655;28;98529;-71
2022/09/05 05:11:08;;;;;;;20.13;14.55;;;;;;;;;;4989037;28;98941;-71
2022/09/05 05:13:56;;;;;;;16.25;14.15;;;;;;;;;;4990269;28;98668;-71
2022/09/05 05:17:12;;;;;;;21.70;14.25;;;;;;;;;;4990004;28;98523;-71
2022/09/05 05:20:08;;;;;;;18.17;13.15;;;;;;;;;;4988590;28;100035;-71
2022/09/05 05:23:06;;;;;;;14.13;12.40;;;;;;;;;;4989332;28;100949;-71
2022/09/05 05:25:41;;;;;;;14.63;13.13;;;;;;;;;;4989765;28;98480;-72
2022/09/05 05:28:21;;;;;;;19.52;13.45;;;;;;;;;;4990089;28;99275;-72
2022/09/05 05:30:50;;;;;;;14.65;12.90;;;;;;;;;;4979967;28;99310;-71
2022/09/05 05:33:31;;;;;;;14.88;13.02;;;;;;;;;;4988880;28;99142;-71
2022/09/05 05:35:57;;;;;;;;;;;;;;;;;;4989562;28;99354;-71
2022/09/05 05:38:26;;;;;;;19.20;12.77;;;;;;;;;;4984247;28;120738;-71
2022/09/05 05:41:01;;;;;;;24.27;13.05;;;;;;;;;;4990695;28;100092;-70
2022/09/05 05:43:36;;;;;;;19.38;13.48;;;;;;;;;;4989893;28;99244;-69
2022/09/05 05:46:02;;;;;;;14.93;13.38;;;;;;;;;;4989175;28;98580;-70
2022/09/05 05:48:33;;;;;;;14.35;12.07;;;;;;;;;;4989144;28;103168;-70
2022/09/05 05:51:05;;;;;;;18.90;11.18;;;;;;;;;;4992633;28;100380;-70
2022/09/05 05:53:52;;;;;;;21.33;10.88;;;;;;;;;;4985371;28;99101;-71
2022/09/05 05:56:27;;;;;;;24.77;13.27;;;;;;;;;;4981215;28;99508;-70
2022/09/05 05:59:12;;;;;;;15.93;13.07;;;;;;;;;;4975388;28;99092;-69
2022/09/05 06:01:57;;;;;;;21.40;12.10;;;;;;;;;;4989661;28;99160;-70
2022/09/05 06:04:29;;;;;;;19.83;12.93;;;;;;;;;;4989498;28;99536;-70
2022/09/05 06:07:36;;;;;;;15.60;12.25;;;;;;;;;;4986234;28;98514;-70
2022/09/05 06:10:41;;;;;;;19.92;13.15;;;;;;;;;;4967915;28;99615;-70
2022/09/05 06:13:38;;;;;;;19.40;12.60;;;;;;;;;;4966917;28;100183;-70
2022/09/05 06:16:38;;;;;;;35.63;12.07;;;;;;;;;;4996054;28;99136;-70
2022/09/05 06:19:10;;;;;;;26.05;12.98;;;;;;;;;;4980404;28;99356;-70
2022/09/05 06:21:55;;;;;;;24.00;11.50;;;;;;;;;;4972762;28;99036;-69
2022/09/05 06:24:44;;;;;;;15.98;12.05;;;;;;;;;;4979342;28;98908;-70
2022/09/05 06:27:29;;;;;;;19.65;12.32;;;;;;;;;;4987063;28;100268;-70
2022/09/05 06:30:12;;;;;;;14.48;12.25;;;;;;;;;;4972966;28;98880;-70
2022/09/05 06:32:39;;;;;;;15.65;11.98;;;;;;;;;;4972872;28;100595;-70
2022/09/05 06:35:25;;;;;;;20.25;13.20;;;;;;;;;;4973172;28;98717;-70
2022/09/05 06:38:00;;;;;;;20.83;11.82;;;;;;;;;;4972308;28;98493;-70
2022/09/05 06:40:43;;;;;;;21.10;11.85;;;;;;;;;;4976685;28;99372;-70
2022/09/05 06:43:12;;;;;;;28.80;13.00;;;;;;;;;;4971882;28;99199;-70
2022/09/05 06:45:48;;;;;;;17.10;11.40;;;;;;;;;;4973139;28;99982;-71
2022/09/05 06:48:37;;;;;;;22.90;12.50;;;;;;;;;;4972580;28;100169;-70
2022/09/05 06:51:24;;;;;;;26.52;12.55;;;;;;;;;;4972750;28;98589;-70
2022/09/05 06:53:50;;;;;;;26.13;12.60;;;;;;;;;;4972596;28;99880;-70
2022/09/05 06:56:22;;;;;;;17.23;12.77;;;;;;;;;;4972509;28;99396;-70
2022/09/05 06:59:06;;;;;;;14.20;12.15;;;;;;;;;;4972372;28;98473;-71
2022/09/05 07:01:41;;;;;;;13.85;12.35;;;;;;;;;;4973122;28;98915;-71
2022/09/05 07:04:29;;;;;;;16.13;12.15;;;;;;;;;;4974922;28;100522;-70
2022/09/05 07:07:45;;;;;;;25.42;13.20;;;;;;;;;;4972719;28;99119;-71
2022/09/05 07:10:12;;;;;;;23.52;9.98;;;;;;;;;;4958018;28;100210;-71
2022/09/05 07:13:07;;;;;;;14.48;9.95;;;;;;;;;;4972586;28;98880;-71
2022/09/05 07:15:51;;;;;;;21.67;11.82;;;;;;;;;;4973491;28;99187;-73
2022/09/05 07:18:36;;;;;;;21.27;12.45;;;;;;;;;;4971582;28;100164;-71
2022/09/05 07:21:31;;;;;;;18.25;11.25;;;;;;;;;;4971728;28;98776;-71
2022/09/05 07:24:06;;;;;;;29.88;12.13;;;;;;;;;;4979682;28;100884;-70
2022/09/05 07:26:38;;;;;;;19.40;11.88;;;;;;;;;;4990720;28;100308;-70
2022/09/05 07:29:29;;;;;;;19.02;10.55;;;;;;;;;;4984797;28;97864;-70
2022/09/05 07:31:58;;;;;;;18.30;11.98;;;;;;;;;;4990747;28;100259;-70
2022/09/05 07:34:29;;;;;;;15.70;10.73;;;;;;;;;;4991901;28;98537;-70
2022/09/05 07:37:01;;;;;;;17.23;10.70;;;;;;;;;;4987651;28;99784;-70
2022/09/05 07:40:00;;;;;;;15.40;10.07;;;;;;;;;;4970788;28;100464;-70
2022/09/05 07:43:01;;;;;;;13.70;10.07;;;;;;;;;;4971835;28;98525;-70
2022/09/05 07:45:43;;;;;;;17.88;11.00;;;;;;;;;;4971316;28;99731;-70
2022/09/05 07:48:26;;;;;;;9.93;8.02;;;;;;;;;;4976028;28;99290;-71
2022/09/05 07:51:03;;;;;;;8.52;7.55;;;;;;;;;;4992246;28;98884;-71
2022/09/05 07:53:51;;;;;;;13.00;9.50;;;;;;;;;;4994288;28;99097;-71
2022/09/05 07:56:46;;;;;;;16.88;10.80;;;;;;;;;;4992256;28;97892;-70
2022/09/05 07:59:33;;;;;;;10.25;8.68;;;;;;;;;;4991119;28;98952;-71
2022/09/05 08:02:00;;;;;;;8.98;7.70;;;;;;;;;;4991528;28;99485;-71
2022/09/05 08:04:27;;;;;;;14.07;8.25;;;;;;;;;;4991490;28;99272;-70
2022/09/05 08:06:58;;;;;;;13.00;8.65;;;;;;;;;;4991218;28;99768;-70
2022/09/05 08:09:46;;;;;;;8.63;7.57;;;;;;;;;;4991536;28;100198;-70
2022/09/05 08:12:35;;;;;;;18.17;7.22;;;;;;;;;;4991764;28;98515;-70
2022/09/05 08:15:27;;;;;;;7.13;6.35;;;;;;;;;;4995738;28;98448;-70
2022/09/05 08:18:25;;;;;;;10.35;6.80;;;;;;;;;;4987259;28;98570;-70
2022/09/05 08:20:59;;;;;;;11.52;6.38;;;;;;;;;;4973400;28;100183;-70
2022/09/05 08:23:28;;;;;;;12.48;6.70;;;;;;;;;;4972409;28;98944;-70
2022/09/05 08:26:01;;;;;;;8.20;5.95;;;;;;;;;;4974056;28;98548;-70
2022/09/05 08:28:32;;;;;;;4.70;4.00;;;;;;;;;;4971413;28;100085;-71
2022/09/05 08:31:08;;;;;;;12.63;5.88;;;;;;;;;;4970980;28;100860;-70
2022/09/05 08:33:35;;;;;;;8.43;6.40;;;;;;;;;;4971687;28;98524;-70
2022/09/05 08:36:20;;;;;;;10.05;5.63;;;;;;;;;;4971238;28;99131;-70
2022/09/05 08:38:46;;;;;;;6.20;4.50;;;;;;;;;;4973865;28;99641;-70
2022/09/05 08:41:21;;;;;;;7.82;3.95;;;;;;;;;;4970885;28;99800;-70
2022/09/05 08:44:17;;;;;;;4.07;3.42;;;;;;;;;;4971327;28;100210;-70
2022/09/05 08:47:06;;;;;;;6.47;3.35;;;;;;;;;;4971808;28;98470;-71
2022/09/05 08:50:05;;;;;;;9.38;3.50;;;;;;;;;;4987081;28;99921;-71
2022/09/05 08:52:50;;;;;;;6.95;2.88;;;;;;;;;;4978837;28;100382;-71
2022/09/05 08:55:23;;;;;;;4.68;3.08;;;;;;;;;;4990591;28;98640;-70
2022/09/05 08:57:49;;;;;;;;;;;;;;;;;;4991214;28;99224;-71
2022/09/05 09:00:16;;;;;;;5.88;2.90;;;;;;;;;;4991393;28;129817;-70
2022/09/05 09:03:05;;;;;;;3.25;2.65;;;;;;;;;;4993934;28;98807;-70
2022/09/05 09:05:50;;;;;;;5.53;2.58;;;;;;;;;;4991009;28;100262;-70
2022/09/05 09:08:45;;;;;;;3.80;2.30;;;;;;;;;;4991164;28;98874;-70
2022/09/05 09:11:20;;;;;;;7.25;2.75;;;;;;;;;;4990268;28;99316;-70
2022/09/05 09:13:52;;;;;;;10.25;2.25;;;;;;;;;;4990655;28;99517;-70
2022/09/05 09:16:18;;;;;;;;;;;;;;;;;;4991381;28;97738;-70
2022/09/05 09:18:48;;;;;;;3.53;2.00;;;;;;;;;;4986092;28;128153;-70
2022/09/05 09:21:27;;;;;;;4.28;2.30;;;;;;;;;;4990939;28;99545;-70
2022/09/05 09:23:56;;;;;;;3.50;1.98;;;;;;;;;;4989624;28;99280;-70
2022/09/05 09:26:26;;;;;;;5.85;1.98;;;;;;;;;;4993573;28;99990;-70
2022/09/05 09:29:07;;;;;;;2.97;1.90;;;;;;;;;;4984487;28;99059;-70
2022/09/05 09:31:43;;;;;;;4.60;2.03;;;;;;;;;;4978535;28;99437;-70
2022/09/05 09:34:31;;;;;;;5.65;1.75;;;;;;;;;;4975575;28;99433;-69
2022/09/05 09:37:19;;;;;;;2.33;1.67;;;;;;;;;;4971342;28;98513;-69
2022/09/05 09:40:24;;;;;;;5.70;2.00;;;;;;;;;;4983169;28;100401;-69
2022/09/05 09:42:56;;;;;;;1.80;1.70;;;;;;;;;;4971466;28;98677;-69
2022/09/05 09:45:28;;;;;;;1.98;1.50;;;;;;;;;;4970601;28;98534;-69
2022/09/05 09:47:54;;;;;;;;;;;;;;;;;;4970918;28;99125;-69
2022/09/05 09:50:30;;;;;;;1.60;1.40;;;;;;;;;;4993360;28;129214;-69
2022/09/05 09:52:58;;;;;;;5.50;1.60;;;;;;;;;;4989917;28;99719;-69
2022/09/05 09:55:43;;;;;;;6.40;1.70;;;;;;;;;;4990384;28;99378;-69
2022/09/05 09:58:44;;;;;;;3.95;1.60;;;;;;;;;;4990484;28;98436;-69
2022/09/05 10:01:29;;;;;;;2.13;1.60;;;;;;;;;;4968106;28;99267;-71
2022/09/05 10:04:30;;;;;;;4.57;2.03;;;;;;;;;;4989328;28;99571;-71
2022/09/05 10:07:16;;;;;;;5.72;1.40;;;;;;;;;;4990277;28;99224;-71
2022/09/05 10:10:11;;;;;;;3.08;1.58;;;;;;;;;;4990997;28;99966;-71
2022/09/05 10:13:16;;;;;;;1.55;1.30;;;;;;;;;;4989135;28;99395;-71
2022/09/05 10:16:03;;;;;;;7.72;1.60;;;;;;;;;;4993292;28;98909;-71
2022/09/05 10:18:38;;;;;;;1.75;1.52;;;;;;;;;;4982891;28;101059;-71
2022/09/05 10:21:04;;;;;;;;;;;;;;;;;;4970306;28;98627;-71
2022/09/05 10:23:54;;;;;;;1.50;1.40;;;;;;;;;;4970505;28;129839;-71
2022/09/05 10:26:39;;;;;;;4.63;1.60;;;;;;;;;;4972274;28;99621;-69
2022/09/05 10:29:05;;;;;;;5.53;1.40;;;;;;;;;;4970821;28;98631;-71
2022/09/05 10:31:56;;;;;;;8.32;1.33;;;;;;;;;;4971038;28;99009;-71
2022/09/05 10:34:58;;;;;;;3.92;1.50;;;;;;;;;;4968912;28;99378;-71
2022/09/05 10:37:47;;;;;;;3.63;1.70;;;;;;;;;;4973940;28;98009;-71
2022/09/05 10:40:21;;;;;;;5.60;2.10;;;;;;;;;;4970344;28;100159;-71
2022/09/05 10:42:52;;;;;;;4.00;1.70;;;;;;;;;;4986259;28;98546;-71
2022/09/05 10:45:37;;;;;;;1.63;1.10;;;;;;;;;;4989601;28;99202;-71
2022/09/05 10:48:15;;;;;;;2.03;1.20;;;;;;;;;;4988498;28;99216;-70
2022/09/05 10:50:43;;;;;;;2.38;1.30;;;;;;;;;;4989769;28;98416;-69
2022/09/05 10:53:24;;;;;;;3.58;1.58;;;;;;;;;;4990031;28;99980;-70
2022/09/05 10:55:54;;;;;;;1.52;1.35;;;;;;;;;;4988538;28;99443;-71
2022/09/05 10:58:40;;;;;;;8.07;2.13;;;;;;;;;;4989787;28;98544;-68
2022/09/05 11:01:38;;;;;;;1.95;1.67;;;;;;;;;;4992302;28;98785;-71
2022/09/05 11:04:27;;;;;;;2.03;1.83;;;;;;;;;;4993936;28;97779;-71
2022/09/05 11:06:56;;;;;;;4.65;1.65;;;;;;;;;;4993350;28;98486;-71
2022/09/05 11:09:27;;;;;;;2.75;1.60;;;;;;;;;;4991972;28;100286;-71
2022/09/05 11:12:17;;;;;;;3.65;1.50;;;;;;;;;;4990252;28;99522;-69
2022/09/05 11:15:01;;;;;;;1.55;1.45;;;;;;;;;;4992660;28;99857;-71
2022/09/05 11:17:48;;;;;;;3.83;1.90;;;;;;;;;;4992252;28;99426;-71
2022/09/05 11:20:23;;;;;;;3.75;1.55;;;;;;;;;;4992727;28;98509;-71
2022/09/05 11:23:08;;;;;;;4.43;1.80;;;;;;;;;;4992616;28;98928;-71
2022/09/05 11:25:36;;;;;;;4.05;1.48;;;;;;;;;;4995885;28;99493;-71
2022/09/05 11:28:15;;;;;;;11.38;1.70;;;;;;;;;;4993027;28;98941;-71
2022/09/05 11:30:45;;;;;;;3.25;1.63;;;;;;;;;;4991546;28;98765;-71
2022/09/05 11:33:30;;;;;;;2.15;1.58;;;;;;;;;;4992627;28;98508;-69
2022/09/05 11:36:27;;;;;;;3.22;1.42;;;;;;;;;;4993019;28;99403;-69
2022/09/05 11:39:16;;;;;;;1.20;1.10;;;;;;;;;;4991195;28;100810;-71
2022/09/05 11:42:08;;;;;;;3.65;1.05;;;;;;;;;;4979865;28;98633;-69
2022/09/05 11:44:37;;;;;;;8.13;1.10;;;;;;;;;;4972220;28;99067;-69
2022/09/05 11:47:06;;;;;;;2.25;1.20;;;;;;;;;;4972062;28;99488;-69
2022/09/05 11:49:52;;;;;;;1.33;1.00;;;;;;;;;;4975792;28;98470;-69
2022/09/05 11:52:20;;;;;;;1.55;1.10;;;;;;;;;;4971350;28;99651;-69
2022/09/05 11:54:46;;;;;;;6.00;1.30;;;;;;;;;;4972327;28;98507;-69
2022/09/05 11:57:18;;;;;;;1.88;1.27;;;;;;;;;;4972833;28;99319;-69
2022/09/05 12:00:14;;;;;;;1.70;1.20;;;;;;;;;;4971117;28;99641;-70
2022/09/05 12:03:07;;;;;;;1.83;1.10;;;;;;;;;;4990068;28;98534;-69
2022/09/05 12:05:51;;;;;;;2.67;1.52;;;;;;;;;;4991137;28;99504;-69
2022/09/05 12:08:27;;;;;;;1.58;1.10;;;;;;;;;;4991993;28;98529;-69
2022/09/05 12:10:57;;;;;;;1.40;1.30;;;;;;;;;;4988341;28;99243;-69
2022/09/05 12:13:31;;;;;;;8.82;1.27;;;;;;;;;;4974623;28;100006;-69
2022/09/05 12:15:59;;;;;;;3.78;1.30;;;;;;;;;;4972005;28;98470;-69
2022/09/05 12:19:00;;;;;;;3.45;1.58;;;;;;;;;;4983905;28;98989;-69
2022/09/05 12:22:01;;;;;;;6.82;1.85;;;;;;;;;;4990827;28;99429;-69
2022/09/05 12:25:00;;;;;;;3.33;1.63;;;;;;;;;;4984382;28;98443;-70
2022/09/05 12:27:58;;;;;;;4.35;1.67;;;;;;;;;;4971069;28;99306;-69
2022/09/05 12:30:44;;;;;;;2.10;1.10;;;;;;;;;;4970777;28;99222;-69
2022/09/05 12:33:32;;;;;;;1.65;1.50;;;;;;;;;;4970649;28;99301;-69
2022/09/05 12:36:38;;;;;;;10.55;1.30;;;;;;;;;;4984523;28;100566;-69
2022/09/05 12:39:28;;;;;;;11.95;1.45;;;;;;;;;;4991976;28;98514;-68
2022/09/05 12:42:20;;;;;;;2.50;1.10;;;;;;;;;;4991208;28;99843;-70
2022/09/05 12:45:08;;;;;;;2.65;1.38;;;;;;;;;;4991079;28;100070;-69
2022/09/05 12:47:53;;;;;;;2.28;1.63;;;;;;;;;;4990882;28;98448;-69
2022/09/05 12:50:31;;;;;;;6.90;1.30;;;;;;;;;;4991780;28;99884;-69
2022/09/05 12:53:00;;;;;;;1.50;1.20;;;;;;;;;;4991420;28;99468;-69
2022/09/05 12:55:42;;;;;;;1.42;1.30;;;;;;;;;;4977818;28;98551;-69
2022/09/05 12:58:30;;;;;;;4.78;1.70;;;;;;;;;;4971793;28;99896;-69
2022/09/05 13:01:24;;;;;;;2.20;1.38;;;;;;;;;;4977226;28;100860;-69
2022/09/05 13:04:14;;;;;;;7.53;1.50;;;;;;;;;;4991244;28;100130;-69
2022/09/05 13:06:46;;;;;;;6.43;1.48;;;;;;;;;;4990268;28;99237;-69
2022/09/05 13:09:15;;;;;;;7.88;1.52;;;;;;;;;;4990703;28;98561;-69
2022/09/05 13:12:08;;;;;;;12.38;1.90;;;;;;;;;;4988005;28;100922;-69
2022/09/05 13:15:18;;;;;;;4.90;1.67;;;;;;;;;;4988777;28;100278;-69
2022/09/05 13:18:01;;;;;;;2.78;1.35;;;;;;;;;;4990932;28;98923;-69
2022/09/05 13:20:35;;;;;;;1.88;1.50;;;;;;;;;;4977086;28;100263;-70
2022/09/05 13:23:03;;;;;;;3.33;1.48;;;;;;;;;;4983240;28;99472;-70
2022/09/05 13:25:30;;;;;;;2.15;1.30;;;;;;;;;;4994527;28;98525;-69
2022/09/05 13:28:00;;;;;;;2.00;1.55;;;;;;;;;;4990057;28;100255;-69
2022/09/05 13:30:27;;;;;;;5.05;1.75;;;;;;;;;;4979130;28;98630;-69
2022/09/05 13:33:19;;;;;;;2.35;1.50;;;;;;;;;;4971121;28;99851;-69
2022/09/05 13:36:10;;;;;;;4.35;1.70;;;;;;;;;;4970494;28;99429;-69
2022/09/05 13:39:03;;;;;;;1.73;1.42;;;;;;;;;;4990648;28;99378;-68
2022/09/05 13:41:36;;;;;;;3.33;1.60;;;;;;;;;;4981955;28;99157;-69
2022/09/05 13:44:09;;;;;;;2.73;1.50;;;;;;;;;;4980141;28;99567;-69
2022/09/05 13:46:53;;;;;;;2.80;1.58;;;;;;;;;;4990484;28;97805;-69
2022/09/05 13:49:26;;;;;;;6.95;1.58;;;;;;;;;;4996113;28;98619;-69
2022/09/05 13:52:18;;;;;;;7.45;1.45;;;;;;;;;;4986814;28;98674;-69
2022/09/05 13:54:46;;;;;;;7.45;1.65;;;;;;;;;;4998462;28;99273;-69
2022/09/05 13:57:39;;;;;;;5.85;1.65;;;;;;;;;;4990649;28;99476;-69
2022/09/05 14:00:05;;;;;;;1.75;1.55;;;;;;;;;;4983793;28;99305;-69
2022/09/05 14:02:37;;;;;;;4.18;1.48;;;;;;;;;;4982158;28;100336;-69
2022/09/05 14:05:30;;;;;;;5.40;1.42;;;;;;;;;;4978510;28;99751;-69
2022/09/05 14:08:10;;;;;;;7.18;2.40;;;;;;;;;;4990248;28;98493;-69
2022/09/05 14:10:50;;;;;;;3.35;1.77;;;;;;;;;;4967295;28;99968;-69
2022/09/05 14:13:42;;;;;;;3.17;1.52;;;;;;;;;;4972108;28;98830;-69
2022/09/05 14:16:12;;;;;;;6.68;1.65;;;;;;;;;;5000296;28;99789;-69
2022/09/05 14:21:28;;;;;;;7.25;1.90;;;;;;;;;;4989994;28;100649;-69
2022/09/05 14:23:58;;;;;;;1.67;1.20;;;;;;;;;;4981947;28;99944;-69
2022/09/05 14:26:41;;;;;;;5.38;1.70;;;;;;;;;;4971613;28;99345;-69
2022/09/05 14:29:13;;;;;;;2.95;1.50;;;;;;;;;;4981378;28;98765;-68
2022/09/05 14:32:00;;;;;;;8.85;1.60;;;;;;;;;;4973662;28;99864;-68
2022/09/05 14:35:05;;;;;;;1.35;1.25;;;;;;;;;;4982664;28;99396;-69
2022/09/05 14:37:52;;;;;;;5.85;1.40;;;;;;;;;;4996541;28;98547;-68
2022/09/05 14:40:58;;;;;;;2.22;1.40;;;;;;;;;;4989587;28;98519;-69
2022/09/05 14:43:38;;;;;;;10.05;2.00;;;;;;;;;;4972869;28;98668;-69
2022/09/05 14:46:23;;;;;;;6.65;1.83;;;;;;;;;;4978615;28;99273;-69
2022/09/05 14:49:16;;;;;;;2.47;1.65;;;;;;;;;;4974454;28;100740;-69
2022/09/05 14:51:47;;;;;;;4.65;1.70;;;;;;;;;;4973591;28;98499;-69
2022/09/05 14:54:22;;;;;;;6.25;1.25;;;;;;;;;;4980874;28;100367;-69
2022/09/05 14:57:14;;;;;;;3.80;1.02;;;;;;;;;;4986413;28;99272;-69
2022/09/05 15:00:05;;;;;;;1.52;1.40;;;;;;;;;;4989139;28;98737;-69
2022/09/05 15:02:54;;;;;;;2.40;1.63;;;;;;;;;;4977201;28;100527;-69
2022/09/05 15:05:28;;;;;;;4.20;1.73;;;;;;;;;;4971710;28;98696;-68
2022/09/05 15:08:02;;;;;;;5.60;1.70;;;;;;;;;;4973513;28;98993;-68
2022/09/05 15:10:37;;;;;;;4.13;1.60;;;;;;;;;;4972055;28;99402;-67
2022/09/05 15:13:24;;;;;;;2.97;1.58;;;;;;;;;;4973039;28;99239;-68
2022/09/05 15:15:57;;;;;;;6.22;1.65;;;;;;;;;;4972541;28;99645;-68
2022/09/05 15:18:30;;;;;;;5.25;1.60;;;;;;;;;;4972585;28;99995;-68
2022/09/05 15:21:16;;;;;;;4.65;1.50;;;;;;;;;;4981562;28;98510;-68
2022/09/05 15:23:58;;;;;;;;;;;;;;;;;;4994785;28;99102;-69
2022/09/05 15:26:29;;;;;;;2.15;1.20;;;;;;;;;;4980322;28;116863;-68
2022/09/05 15:29:08;;;;;;;5.63;1.60;;;;;;;;;;4971010;28;100263;-68
2022/09/05 15:31:40;;;;;;;5.55;1.50;;;;;;;;;;4972456;28;99343;-69
2022/09/05 15:34:30;;;;;;;2.47;1.27;;;;;;;;;;4973197;28;98220;-69
2022/09/05 15:36:57;;;;;;;1.90;1.58;;;;;;;;;;4971695;28;98481;-68
2022/09/05 15:39:43;;;;;;;1.70;1.15;;;;;;;;;;4972183;28;99491;-68
2022/09/05 15:42:12;;;;;;;3.30;1.63;;;;;;;;;;4972366;28;99192;-69
2022/09/05 15:44:38;;;;;;;11.65;2.05;;;;;;;;;;4972652;28;100279;-68
2022/09/05 15:47:25;;;;;;;4.45;1.50;;;;;;;;;;4975315;28;99266;-68
2022/09/05 15:49:53;;;;;;;3.17;1.70;;;;;;;;;;4974965;28;99969;-68
2022/09/05 15:52:20;;;;;;;1.98;1.48;;;;;;;;;;4990831;28;99540;-68
2022/09/05 15:54:54;;;;;;;1.80;1.25;;;;;;;;;;4992066;28;98383;-68
2022/09/05 15:57:31;;;;;;;1.77;1.60;;;;;;;;;;4977927;28;99847;-68